KGJT/GJT METAR and TAF weather

Enter ICAO airport designator
Station Type Date Time Source
KGJT METAR 2021/07/26 12:53 UTC NOAA

KGJT 261253Z 10003KT 10SM CLR 18/14 A3017 RMK AO2 SLP139 T01830144


Station Type Date Time Source
KGJT Decoded METAR 2021/07/26 12:53 UTC NOAA

GRAND JUNCTION WALKER FIELD, CO, United States (KGJT) 39-08N 108-32W 1452M
Jul 26, 2021 - 08:53 AM EDT / 2021.07.26 1253 UTC
Wind: from the E (100 degrees) at 3 MPH (3 KT):0
Visibility: 10 mile(s):0
Sky conditions: clear
Temperature: 64.9 F (18.3 C)
Dew Point: 57.9 F (14.4 C)
Relative Humidity: 77%
Pressure (altimeter): 30.17 in. Hg (1021 hPa)
ob: KGJT 261253Z 10003KT 10SM CLR 18/14 A3017 RMK AO2 SLP139 T01830144
cycle: 13

Station Type Date Time Source
KGJT TAF 2021/07/26 12:27 UTC NOAA

TAF KGJT 261125Z 2612/2712 04005KT P6SM FEW120 BKN250
FM261300 13007KT P6SM FEW090 FEW250
FM261800 19010KT P6SM SCT250
FM262100 24008KT P6SM VCTS SCT100CB BKN130
FM270100 17011KT P6SM VCTS SCT090CB BKN100
FM270600 12014KT P6SM SCT090 BKN120

Example: see airport list